sensor_id;sensor_type;location;lat;lon;timestamp;temperature;humidity
41290;DHT22;36117;46.680;11.154;2022-08-21T00:01:27;25.70;46.90
41290;DHT22;36117;46.680;11.154;2022-08-21T00:03:56;26.00;46.20
41290;DHT22;36117;46.680;11.154;2022-08-21T00:06:23;25.70;46.50
41290;DHT22;36117;46.680;11.154;2022-08-21T00:08:50;25.70;46.40
41290;DHT22;36117;46.680;11.154;2022-08-21T00:11:17;25.70;46.70
41290;DHT22;36117;46.680;11.154;2022-08-21T00:13:43;25.40;46.90
41290;DHT22;36117;46.680;11.154;2022-08-21T00:16:09;25.60;47.10
41290;DHT22;36117;46.680;11.154;2022-08-21T00:18:35;25.70;47.30
41290;DHT22;36117;46.680;11.154;2022-08-21T00:21:01;25.80;46.90
41290;DHT22;36117;46.680;11.154;2022-08-21T00:23:27;25.40;46.80
41290;DHT22;36117;46.680;11.154;2022-08-21T00:25:53;25.60;46.90
41290;DHT22;36117;46.680;11.154;2022-08-21T00:28:19;25.50;46.70
41290;DHT22;36117;46.680;11.154;2022-08-21T00:30:45;25.70;46.60
41290;DHT22;36117;46.680;11.154;2022-08-21T00:33:11;25.60;46.60
41290;DHT22;36117;46.680;11.154;2022-08-21T00:35:39;25.40;48.60
41290;DHT22;36117;46.680;11.154;2022-08-21T00:38:07;25.60;49.10
41290;DHT22;36117;46.680;11.154;2022-08-21T00:40:53;25.90;48.80
41290;DHT22;36117;46.680;11.154;2022-08-21T00:43:26;26.10;48.70
41290;DHT22;36117;46.680;11.154;2022-08-21T00:45:54;25.40;49.90
41290;DHT22;36117;46.680;11.154;2022-08-21T00:48:21;25.30;50.80
41290;DHT22;36117;46.680;11.154;2022-08-21T00:50:52;25.10;51.50
41290;DHT22;36117;46.680;11.154;2022-08-21T00:53:20;25.10;51.50
41290;DHT22;36117;46.680;11.154;2022-08-21T00:55:47;25.10;51.20
41290;DHT22;36117;46.680;11.154;2022-08-21T00:58:13;25.10;50.80
41290;DHT22;36117;46.680;11.154;2022-08-21T01:00:43;24.80;51.90
41290;DHT22;36117;46.680;11.154;2022-08-21T01:03:13;24.10;53.30
41290;DHT22;36117;46.680;11.154;2022-08-21T01:05:40;24.20;53.70
41290;DHT22;36117;46.680;11.154;2022-08-21T01:08:08;24.20;53.90
41290;DHT22;36117;46.680;11.154;2022-08-21T01:10:36;24.00;53.90
41290;DHT22;36117;46.680;11.154;2022-08-21T01:13:04;23.80;55.00
41290;DHT22;36117;46.680;11.154;2022-08-21T01:15:36;24.20;54.70
41290;DHT22;36117;46.680;11.154;2022-08-21T01:18:04;24.00;55.00
41290;DHT22;36117;46.680;11.154;2022-08-21T01:20:31;24.40;54.30
41290;DHT22;36117;46.680;11.154;2022-08-21T01:22:57;24.40;53.80
41290;DHT22;36117;46.680;11.154;2022-08-21T01:25:23;24.50;53.90
41290;DHT22;36117;46.680;11.154;2022-08-21T01:27:49;24.50;53.60
41290;DHT22;36117;46.680;11.154;2022-08-21T01:30:22;24.60;53.10
41290;DHT22;36117;46.680;11.154;2022-08-21T01:32:49;24.70;54.00
41290;DHT22;36117;46.680;11.154;2022-08-21T01:35:17;24.10;55.80
41290;DHT22;36117;46.680;11.154;2022-08-21T01:37:44;23.80;55.70
41290;DHT22;36117;46.680;11.154;2022-08-21T01:40:11;24.10;55.10
41290;DHT22;36117;46.680;11.154;2022-08-21T01:42:38;24.30;55.10
41290;DHT22;36117;46.680;11.154;2022-08-21T01:45:06;24.30;55.40
41290;DHT22;36117;46.680;11.154;2022-08-21T01:47:32;24.10;55.30
41290;DHT22;36117;46.680;11.154;2022-08-21T01:49:58;24.10;55.10
41290;DHT22;36117;46.680;11.154;2022-08-21T01:52:24;24.20;55.60
41290;DHT22;36117;46.680;11.154;2022-08-21T01:54:50;23.90;55.90
41290;DHT22;36117;46.680;11.154;2022-08-21T01:57:16;24.00;56.70
41290;DHT22;36117;46.680;11.154;2022-08-21T01:59:42;23.90;56.90
41290;DHT22;36117;46.680;11.154;2022-08-21T02:02:08;23.80;57.70
41290;DHT22;36117;46.680;11.154;2022-08-21T02:04:34;23.80;57.00
41290;DHT22;36117;46.680;11.154;2022-08-21T02:07:00;23.60;57.30
41290;DHT22;36117;46.680;11.154;2022-08-21T02:09:27;23.50;57.90
41290;DHT22;36117;46.680;11.154;2022-08-21T02:11:54;23.40;57.80
41290;DHT22;36117;46.680;11.154;2022-08-21T02:14:20;23.60;58.00
41290;DHT22;36117;46.680;11.154;2022-08-21T02:16:45;23.80;57.60
41290;DHT22;36117;46.680;11.154;2022-08-21T02:19:13;23.80;56.90
41290;DHT22;36117;46.680;11.154;2022-08-21T02:21:40;23.30;58.60
41290;DHT22;36117;46.680;11.154;2022-08-21T02:24:06;23.40;58.20
41290;DHT22;36117;46.680;11.154;2022-08-21T02:26:32;23.20;58.80
41290;DHT22;36117;46.680;11.154;2022-08-21T02:28:58;23.40;59.10
41290;DHT22;36117;46.680;11.154;2022-08-21T02:31:24;23.30;60.00
41290;DHT22;36117;46.680;11.154;2022-08-21T02:33:50;23.20;59.60
41290;DHT22;36117;46.680;11.154;2022-08-21T02:36:17;23.30;59.60
41290;DHT22;36117;46.680;11.154;2022-08-21T02:38:43;23.20;59.80
41290;DHT22;36117;46.680;11.154;2022-08-21T02:41:15;23.30;59.40
41290;DHT22;36117;46.680;11.154;2022-08-21T02:43:41;23.50;59.30
41290;DHT22;36117;46.680;11.154;2022-08-21T02:46:09;23.30;59.30
41290;DHT22;36117;46.680;11.154;2022-08-21T02:48:35;23.20;60.10
41290;DHT22;36117;46.680;11.154;2022-08-21T02:51:06;23.30;60.40
41290;DHT22;36117;46.680;11.154;2022-08-21T02:53:32;23.30;60.00
41290;DHT22;36117;46.680;11.154;2022-08-21T02:56:00;23.40;59.70
41290;DHT22;36117;46.680;11.154;2022-08-21T02:58:28;23.30;59.40
41290;DHT22;36117;46.680;11.154;2022-08-21T03:00:55;23.40;58.80
41290;DHT22;36117;46.680;11.154;2022-08-21T03:03:21;23.50;59.30
41290;DHT22;36117;46.680;11.154;2022-08-21T03:05:48;23.40;58.90
41290;DHT22;36117;46.680;11.154;2022-08-21T03:08:15;23.50;59.30
41290;DHT22;36117;46.680;11.154;2022-08-21T03:10:44;23.50;59.00
41290;DHT22;36117;46.680;11.154;2022-08-21T03:13:11;23.60;58.40
41290;DHT22;36117;46.680;11.154;2022-08-21T03:15:37;23.70;58.20
41290;DHT22;36117;46.680;11.154;2022-08-21T03:18:04;23.60;58.70
41290;DHT22;36117;46.680;11.154;2022-08-21T03:20:31;23.40;58.60
41290;DHT22;36117;46.680;11.154;2022-08-21T03:22:58;23.60;58.40
41290;DHT22;36117;46.680;11.154;2022-08-21T03:25:25;23.70;57.90
41290;DHT22;36117;46.680;11.154;2022-08-21T03:27:52;23.80;57.80
41290;DHT22;36117;46.680;11.154;2022-08-21T03:30:19;23.70;57.70
41290;DHT22;36117;46.680;11.154;2022-08-21T03:32:48;22.70;60.50
41290;DHT22;36117;46.680;11.154;2022-08-21T03:35:14;22.80;61.30
41290;DHT22;36117;46.680;11.154;2022-08-21T03:37:40;22.90;60.90
41290;DHT22;36117;46.680;11.154;2022-08-21T03:40:08;23.00;60.30
41290;DHT22;36117;46.680;11.154;2022-08-21T03:42:34;23.00;60.10
41290;DHT22;36117;46.680;11.154;2022-08-21T03:45:00;23.00;59.70
41290;DHT22;36117;46.680;11.154;2022-08-21T03:47:26;23.00;60.80
41290;DHT22;36117;46.680;11.154;2022-08-21T03:49:52;23.00;61.10
41290;DHT22;36117;46.680;11.154;2022-08-21T03:52:18;22.60;61.50
41290;DHT22;36117;46.680;11.154;2022-08-21T03:54:44;22.60;62.70
41290;DHT22;36117;46.680;11.154;2022-08-21T03:57:10;22.60;62.20
41290;DHT22;36117;46.680;11.154;2022-08-21T03:59:37;22.70;62.10
41290;DHT22;36117;46.680;11.154;2022-08-21T04:02:06;22.40;61.80
41290;DHT22;36117;46.680;11.154;2022-08-21T04:04:33;22.30;63.00
41290;DHT22;36117;46.680;11.154;2022-08-21T04:07:00;22.60;62.30
41290;DHT22;36117;46.680;11.154;2022-08-21T04:09:26;22.70;61.00
41290;DHT22;36117;46.680;11.154;2022-08-21T04:11:52;22.80;60.40
41290;DHT22;36117;46.680;11.154;2022-08-21T04:14:18;22.10;61.30
41290;DHT22;36117;46.680;11.154;2022-08-21T04:16:44;22.20;62.20
41290;DHT22;36117;46.680;11.154;2022-08-21T04:19:11;22.20;61.90
41290;DHT22;36117;46.680;11.154;2022-08-21T04:21:42;22.10;62.40
41290;DHT22;36117;46.680;11.154;2022-08-21T04:24:09;22.40;61.10
41290;DHT22;36117;46.680;11.154;2022-08-21T04:26:36;22.50;60.80
41290;DHT22;36117;46.680;11.154;2022-08-21T04:29:04;22.60;60.00
41290;DHT22;36117;46.680;11.154;2022-08-21T04:31:34;22.80;59.90
41290;DHT22;36117;46.680;11.154;2022-08-21T04:34:02;22.70;59.50
41290;DHT22;36117;46.680;11.154;2022-08-21T04:36:28;22.60;59.90
41290;DHT22;36117;46.680;11.154;2022-08-21T04:38:54;22.90;59.30
41290;DHT22;36117;46.680;11.154;2022-08-21T04:41:20;23.00;59.00
41290;DHT22;36117;46.680;11.154;2022-08-21T04:43:46;22.10;60.10
41290;DHT22;36117;46.680;11.154;2022-08-21T04:46:12;22.20;60.90
41290;DHT22;36117;46.680;11.154;2022-08-21T04:48:37;22.20;60.80
41290;DHT22;36117;46.680;11.154;2022-08-21T04:51:10;22.20;61.30
41290;DHT22;36117;46.680;11.154;2022-08-21T04:53:45;22.60;60.50
41290;DHT22;36117;46.680;11.154;2022-08-21T04:58:49;22.00;60.60
41290;DHT22;36117;46.680;11.154;2022-08-21T05:01:20;21.50;63.00
41290;DHT22;36117;46.680;11.154;2022-08-21T05:03:49;21.90;62.90
41290;DHT22;36117;46.680;11.154;2022-08-21T05:06:16;22.20;61.60
41290;DHT22;36117;46.680;11.154;2022-08-21T05:08:44;22.30;61.30
41290;DHT22;36117;46.680;11.154;2022-08-21T05:11:11;22.50;60.30
41290;DHT22;36117;46.680;11.154;2022-08-21T05:13:37;22.80;59.40
41290;DHT22;36117;46.680;11.154;2022-08-21T05:16:03;23.20;58.60
41290;DHT22;36117;46.680;11.154;2022-08-21T05:18:29;23.10;58.00
41290;DHT22;36117;46.680;11.154;2022-08-21T05:20:55;23.30;57.30
41290;DHT22;36117;46.680;11.154;2022-08-21T05:23:20;23.40;57.20
41290;DHT22;36117;46.680;11.154;2022-08-21T05:25:46;23.10;56.90
41290;DHT22;36117;46.680;11.154;2022-08-21T05:28:12;22.70;58.20
41290;DHT22;36117;46.680;11.154;2022-08-21T05:30:38;23.00;58.40
41290;DHT22;36117;46.680;11.154;2022-08-21T05:33:05;23.20;57.60
41290;DHT22;36117;46.680;11.154;2022-08-21T05:35:32;23.40;57.40
41290;DHT22;36117;46.680;11.154;2022-08-21T05:37:59;23.60;56.90
41290;DHT22;36117;46.680;11.154;2022-08-21T05:40:25;23.30;56.50
41290;DHT22;36117;46.680;11.154;2022-08-21T05:42:52;23.40;56.40
41290;DHT22;36117;46.680;11.154;2022-08-21T05:45:19;23.40;56.90
41290;DHT22;36117;46.680;11.154;2022-08-21T05:47:45;23.80;56.70
41290;DHT22;36117;46.680;11.154;2022-08-21T05:50:11;23.70;56.90
41290;DHT22;36117;46.680;11.154;2022-08-21T05:52:37;24.10;56.40
41290;DHT22;36117;46.680;11.154;2022-08-21T05:55:04;24.00;55.60
41290;DHT22;36117;46.680;11.154;2022-08-21T05:57:30;24.60;53.40
41290;DHT22;36117;46.680;11.154;2022-08-21T05:59:55;24.30;54.40
41290;DHT22;36117;46.680;11.154;2022-08-21T06:02:21;24.40;54.60
41290;DHT22;36117;46.680;11.154;2022-08-21T06:04:47;24.30;55.30
41290;DHT22;36117;46.680;11.154;2022-08-21T06:07:14;24.60;55.10
41290;DHT22;36117;46.680;11.154;2022-08-21T06:09:40;25.00;53.20
41290;DHT22;36117;46.680;11.154;2022-08-21T06:12:07;25.10;53.10
41290;DHT22;36117;46.680;11.154;2022-08-21T06:14:34;25.00;52.60
41290;DHT22;36117;46.680;11.154;2022-08-21T06:17:04;25.70;52.50
41290;DHT22;36117;46.680;11.154;2022-08-21T06:19:30;26.60;50.70
41290;DHT22;36117;46.680;11.154;2022-08-21T06:21:56;27.40;49.90
41290;DHT22;36117;46.680;11.154;2022-08-21T06:24:22;28.40;45.70
41290;DHT22;36117;46.680;11.154;2022-08-21T06:26:48;28.80;45.00
41290;DHT22;36117;46.680;11.154;2022-08-21T06:29:14;29.60;44.20
41290;DHT22;36117;46.680;11.154;2022-08-21T06:31:43;30.20;43.20
41290;DHT22;36117;46.680;11.154;2022-08-21T06:34:09;30.80;42.20
41290;DHT22;36117;46.680;11.154;2022-08-21T06:36:35;31.30;41.20
41290;DHT22;36117;46.680;11.154;2022-08-21T06:39:01;31.70;39.20
41290;DHT22;36117;46.680;11.154;2022-08-21T06:41:27;31.60;39.70
41290;DHT22;36117;46.680;11.154;2022-08-21T06:43:54;31.60;39.70
41290;DHT22;36117;46.680;11.154;2022-08-21T06:46:20;31.50;39.00
41290;DHT22;36117;46.680;11.154;2022-08-21T06:48:46;32.50;37.50
41290;DHT22;36117;46.680;11.154;2022-08-21T06:51:12;32.70;36.70
41290;DHT22;36117;46.680;11.154;2022-08-21T06:53:38;32.50;36.40
41290;DHT22;36117;46.680;11.154;2022-08-21T06:56:04;32.30;36.80
41290;DHT22;36117;46.680;11.154;2022-08-21T06:58:30;32.90;36.30
41290;DHT22;36117;46.680;11.154;2022-08-21T07:00:56;33.40;35.50
41290;DHT22;36117;46.680;11.154;2022-08-21T07:03:29;32.90;35.00
41290;DHT22;36117;46.680;11.154;2022-08-21T07:05:55;33.10;35.30
41290;DHT22;36117;46.680;11.154;2022-08-21T07:08:25;32.90;35.00
41290;DHT22;36117;46.680;11.154;2022-08-21T07:10:54;33.60;35.80
41290;DHT22;36117;46.680;11.154;2022-08-21T07:13:21;34.60;34.00
41290;DHT22;36117;46.680;11.154;2022-08-21T07:15:47;34.70;32.90
41290;DHT22;36117;46.680;11.154;2022-08-21T07:18:13;35.30;33.30
41290;DHT22;36117;46.680;11.154;2022-08-21T07:20:40;35.90;32.40
41290;DHT22;36117;46.680;11.154;2022-08-21T07:23:11;35.70;31.90
41290;DHT22;36117;46.680;11.154;2022-08-21T07:25:37;35.70;32.50
41290;DHT22;36117;46.680;11.154;2022-08-21T07:28:04;36.40;32.00
41290;DHT22;36117;46.680;11.154;2022-08-21T07:30:31;36.00;31.70
41290;DHT22;36117;46.680;11.154;2022-08-21T07:32:57;36.30;31.60
41290;DHT22;36117;46.680;11.154;2022-08-21T07:35:23;37.00;31.70
41290;DHT22;36117;46.680;11.154;2022-08-21T07:37:49;37.20;30.40
41290;DHT22;36117;46.680;11.154;2022-08-21T07:40:16;37.90;30.40
41290;DHT22;36117;46.680;11.154;2022-08-21T07:42:47;36.80;29.90
41290;DHT22;36117;46.680;11.154;2022-08-21T07:45:15;36.10;29.80
41290;DHT22;36117;46.680;11.154;2022-08-21T07:47:42;35.60;30.50
41290;DHT22;36117;46.680;11.154;2022-08-21T07:50:10;36.10;30.70
41290;DHT22;36117;46.680;11.154;2022-08-21T07:52:36;37.00;30.20
41290;DHT22;36117;46.680;11.154;2022-08-21T07:55:02;37.40;30.00
41290;DHT22;36117;46.680;11.154;2022-08-21T07:57:28;37.40;30.20
41290;DHT22;36117;46.680;11.154;2022-08-21T07:59:54;38.80;29.40
41290;DHT22;36117;46.680;11.154;2022-08-21T08:02:28;38.40;29.50
41290;DHT22;36117;46.680;11.154;2022-08-21T08:04:58;38.60;29.60
41290;DHT22;36117;46.680;11.154;2022-08-21T08:07:25;39.50;29.30
41290;DHT22;36117;46.680;11.154;2022-08-21T08:09:51;39.50;28.90
41290;DHT22;36117;46.680;11.154;2022-08-21T08:12:17;40.80;28.70
41290;DHT22;36117;46.680;11.154;2022-08-21T08:14:43;40.60;28.50
41290;DHT22;36117;46.680;11.154;2022-08-21T08:17:09;41.20;27.70
41290;DHT22;36117;46.680;11.154;2022-08-21T08:19:35;40.60;27.50
41290;DHT22;36117;46.680;11.154;2022-08-21T08:22:01;41.30;27.40
41290;DHT22;36117;46.680;11.154;2022-08-21T08:24:40;41.50;27.20
41290;DHT22;36117;46.680;11.154;2022-08-21T08:27:06;40.70;27.20
41290;DHT22;36117;46.680;11.154;2022-08-21T08:29:32;40.90;27.60
41290;DHT22;36117;46.680;11.154;2022-08-21T08:31:58;42.40;27.10
41290;DHT22;36117;46.680;11.154;2022-08-21T08:34:24;41.70;26.70
41290;DHT22;36117;46.680;11.154;2022-08-21T08:36:50;42.00;26.70
41290;DHT22;36117;46.680;11.154;2022-08-21T08:39:16;41.30;26.30
41290;DHT22;36117;46.680;11.154;2022-08-21T08:41:45;41.00;26.40
41290;DHT22;36117;46.680;11.154;2022-08-21T08:44:13;41.90;26.30
41290;DHT22;36117;46.680;11.154;2022-08-21T08:46:43;42.40;26.40
41290;DHT22;36117;46.680;11.154;2022-08-21T08:49:20;41.70;25.90
41290;DHT22;36117;46.680;11.154;2022-08-21T08:52:08;41.40;26.20
41290;DHT22;36117;46.680;11.154;2022-08-21T08:54:45;42.20;26.40
41290;DHT22;36117;46.680;11.154;2022-08-21T08:57:17;42.30;25.70
41290;DHT22;36117;46.680;11.154;2022-08-21T08:59:46;43.50;25.60
41290;DHT22;36117;46.680;11.154;2022-08-21T09:02:15;43.60;25.70
41290;DHT22;36117;46.680;11.154;2022-08-21T09:04:42;43.10;25.30
41290;DHT22;36117;46.680;11.154;2022-08-21T09:15:58;42.40;25.80
41290;DHT22;36117;46.680;11.154;2022-08-21T09:21:15;43.60;25.00
41290;DHT22;36117;46.680;11.154;2022-08-21T09:26:24;43.10;25.30
41290;DHT22;36117;46.680;11.154;2022-08-21T09:28:58;43.90;24.50
41290;DHT22;36117;46.680;11.154;2022-08-21T09:31:28;43.80;24.00
41290;DHT22;36117;46.680;11.154;2022-08-21T09:34:04;44.80;23.70
41290;DHT22;36117;46.680;11.154;2022-08-21T09:36:50;45.10;23.50
41290;DHT22;36117;46.680;11.154;2022-08-21T09:39:30;43.60;23.50
41290;DHT22;36117;46.680;11.154;2022-08-21T09:42:07;45.30;23.30
41290;DHT22;36117;46.680;11.154;2022-08-21T09:44:38;45.90;23.00
41290;DHT22;36117;46.680;11.154;2022-08-21T09:47:07;43.10;23.20
41290;DHT22;36117;46.680;11.154;2022-08-21T09:49:37;43.80;23.70
41290;DHT22;36117;46.680;11.154;2022-08-21T09:52:20;44.80;23.80
41290;DHT22;36117;46.680;11.154;2022-08-21T09:54:51;45.60;23.50
41290;DHT22;36117;46.680;11.154;2022-08-21T09:57:23;45.70;23.00
41290;DHT22;36117;46.680;11.154;2022-08-21T10:00:26;45.00;22.80
41290;DHT22;36117;46.680;11.154;2022-08-21T10:02:52;45.90;22.90
41290;DHT22;36117;46.680;11.154;2022-08-21T10:05:20;46.20;23.10
41290;DHT22;36117;46.680;11.154;2022-08-21T10:07:46;47.00;23.20
41290;DHT22;36117;46.680;11.154;2022-08-21T10:10:24;46.00;22.60
41290;DHT22;36117;46.680;11.154;2022-08-21T10:15:56;45.90;23.60
41290;DHT22;36117;46.680;11.154;2022-08-21T10:20:56;46.50;22.70
41290;DHT22;36117;46.680;11.154;2022-08-21T10:31:50;46.20;22.90
41290;DHT22;36117;46.680;11.154;2022-08-21T10:34:42;46.00;22.60
41290;DHT22;36117;46.680;11.154;2022-08-21T10:37:19;46.00;22.60
41290;DHT22;36117;46.680;11.154;2022-08-21T10:40:15;45.10;23.30
41290;DHT22;36117;46.680;11.154;2022-08-21T10:45:43;43.30;23.50
41290;DHT22;36117;46.680;11.154;2022-08-21T10:48:35;43.80;24.10
41290;DHT22;36117;46.680;11.154;2022-08-21T10:53:55;42.50;24.40
41290;DHT22;36117;46.680;11.154;2022-08-21T10:56:31;42.20;24.50
41290;DHT22;36117;46.680;11.154;2022-08-21T11:01:53;41.90;24.30
41290;DHT22;36117;46.680;11.154;2022-08-21T11:10:00;41.30;24.90
41290;DHT22;36117;46.680;11.154;2022-08-21T11:12:31;41.20;24.70
41290;DHT22;36117;46.680;11.154;2022-08-21T11:15:26;41.00;24.80
41290;DHT22;36117;46.680;11.154;2022-08-21T11:18:17;41.50;24.10
41290;DHT22;36117;46.680;11.154;2022-08-21T11:21:05;42.20;24.50
41290;DHT22;36117;46.680;11.154;2022-08-21T11:23:42;41.90;24.80
41290;DHT22;36117;46.680;11.154;2022-08-21T11:26:24;41.60;24.50
41290;DHT22;36117;46.680;11.154;2022-08-21T11:28:55;41.50;24.00
41290;DHT22;36117;46.680;11.154;2022-08-21T11:31:45;39.00;24.40
41290;DHT22;36117;46.680;11.154;2022-08-21T11:37:04;39.60;24.70
41290;DHT22;36117;46.680;11.154;2022-08-21T11:39:55;38.80;25.00
41290;DHT22;36117;46.680;11.154;2022-08-21T11:42:44;39.70;24.90
41290;DHT22;36117;46.680;11.154;2022-08-21T11:45:49;38.50;24.30
41290;DHT22;36117;46.680;11.154;2022-08-21T11:50:47;39.30;24.80
41290;DHT22;36117;46.680;11.154;2022-08-21T11:53:19;38.90;24.70
41290;DHT22;36117;46.680;11.154;2022-08-21T11:55:58;38.30;24.70
41290;DHT22;36117;46.680;11.154;2022-08-21T11:58:32;37.90;25.10
41290;DHT22;36117;46.680;11.154;2022-08-21T12:01:07;38.30;25.50
41290;DHT22;36117;46.680;11.154;2022-08-21T12:03:55;39.10;25.30
41290;DHT22;36117;46.680;11.154;2022-08-21T12:06:37;39.80;24.70
41290;DHT22;36117;46.680;11.154;2022-08-21T12:09:28;38.90;24.30
41290;DHT22;36117;46.680;11.154;2022-08-21T12:14:44;38.90;24.50
41290;DHT22;36117;46.680;11.154;2022-08-21T12:17:23;38.70;25.10
41290;DHT22;36117;46.680;11.154;2022-08-21T12:20:00;38.10;24.80
41290;DHT22;36117;46.680;11.154;2022-08-21T12:22:38;38.00;24.50
41290;DHT22;36117;46.680;11.154;2022-08-21T12:25:08;36.40;25.40
41290;DHT22;36117;46.680;11.154;2022-08-21T12:27:53;36.70;25.60
41290;DHT22;36117;46.680;11.154;2022-08-21T12:33:05;37.70;25.40
41290;DHT22;36117;46.680;11.154;2022-08-21T12:35:37;38.10;25.00
41290;DHT22;36117;46.680;11.154;2022-08-21T12:40:33;37.90;25.40
41290;DHT22;36117;46.680;11.154;2022-08-21T12:43:04;38.10;24.70
41290;DHT22;36117;46.680;11.154;2022-08-21T12:45:37;37.30;25.20
41290;DHT22;36117;46.680;11.154;2022-08-21T12:48:21;37.90;25.00
41290;DHT22;36117;46.680;11.154;2022-08-21T12:53:50;38.10;24.80
41290;DHT22;36117;46.680;11.154;2022-08-21T12:56:31;38.10;24.70
41290;DHT22;36117;46.680;11.154;2022-08-21T12:59:02;37.40;24.80
41290;DHT22;36117;46.680;11.154;2022-08-21T13:01:39;37.60;25.40
41290;DHT22;36117;46.680;11.154;2022-08-21T13:04:17;37.90;25.00
41290;DHT22;36117;46.680;11.154;2022-08-21T13:06:48;38.40;24.70
41290;DHT22;36117;46.680;11.154;2022-08-21T13:09:18;38.00;24.40
41290;DHT22;36117;46.680;11.154;2022-08-21T13:11:47;37.80;24.40
41290;DHT22;36117;46.680;11.154;2022-08-21T13:14:38;37.40;25.20
41290;DHT22;36117;46.680;11.154;2022-08-21T13:17:05;37.60;25.20
41290;DHT22;36117;46.680;11.154;2022-08-21T13:19:32;38.10;24.80
41290;DHT22;36117;46.680;11.154;2022-08-21T13:22:00;38.00;24.40
41290;DHT22;36117;46.680;11.154;2022-08-21T13:24:32;37.60;24.40
41290;DHT22;36117;46.680;11.154;2022-08-21T13:26:59;37.20;24.80
41290;DHT22;36117;46.680;11.154;2022-08-21T13:29:31;37.50;25.30
41290;DHT22;36117;46.680;11.154;2022-08-21T13:32:03;37.40;24.80
41290;DHT22;36117;46.680;11.154;2022-08-21T13:34:35;37.50;24.70
41290;DHT22;36117;46.680;11.154;2022-08-21T13:37:06;37.40;25.30
41290;DHT22;36117;46.680;11.154;2022-08-21T13:39:32;37.40;24.70
41290;DHT22;36117;46.680;11.154;2022-08-21T13:42:01;37.20;24.50
41290;DHT22;36117;46.680;11.154;2022-08-21T13:44:35;36.80;24.90
41290;DHT22;36117;46.680;11.154;2022-08-21T13:47:03;36.90;25.40
41290;DHT22;36117;46.680;11.154;2022-08-21T13:49:38;36.90;25.00
41290;DHT22;36117;46.680;11.154;2022-08-21T13:52:21;37.20;25.10
41290;DHT22;36117;46.680;11.154;2022-08-21T13:55:09;37.80;25.00
41290;DHT22;36117;46.680;11.154;2022-08-21T13:57:37;36.60;25.10
41290;DHT22;36117;46.680;11.154;2022-08-21T14:00:24;36.80;25.50
41290;DHT22;36117;46.680;11.154;2022-08-21T14:02:52;37.00;25.30
41290;DHT22;36117;46.680;11.154;2022-08-21T14:05:26;36.70;25.20
41290;DHT22;36117;46.680;11.154;2022-08-21T14:08:20;36.80;25.60
41290;DHT22;36117;46.680;11.154;2022-08-21T14:10:51;36.80;25.30
41290;DHT22;36117;46.680;11.154;2022-08-21T14:16:26;36.80;25.40
41290;DHT22;36117;46.680;11.154;2022-08-21T14:21:35;36.50;25.40
41290;DHT22;36117;46.680;11.154;2022-08-21T14:24:13;36.40;25.40
41290;DHT22;36117;46.680;11.154;2022-08-21T14:27:04;36.50;25.60
41290;DHT22;36117;46.680;11.154;2022-08-21T14:29:39;36.80;25.60
41290;DHT22;36117;46.680;11.154;2022-08-21T14:32:27;37.00;25.90
41290;DHT22;36117;46.680;11.154;2022-08-21T14:34:55;36.90;25.50
41290;DHT22;36117;46.680;11.154;2022-08-21T14:37:22;36.70;25.60
41290;DHT22;36117;46.680;11.154;2022-08-21T14:39:48;36.80;25.60
41290;DHT22;36117;46.680;11.154;2022-08-21T14:42:14;36.90;25.30
41290;DHT22;36117;46.680;11.154;2022-08-21T14:44:40;36.90;25.30
41290;DHT22;36117;46.680;11.154;2022-08-21T14:47:08;36.10;25.50
41290;DHT22;36117;46.680;11.154;2022-08-21T14:49:34;36.40;25.70
41290;DHT22;36117;46.680;11.154;2022-08-21T14:52:00;35.60;25.20
41290;DHT22;36117;46.680;11.154;2022-08-21T14:54:28;35.90;25.90
41290;DHT22;36117;46.680;11.154;2022-08-21T14:56:54;36.00;25.80
41290;DHT22;36117;46.680;11.154;2022-08-21T14:59:21;36.10;25.80
41290;DHT22;36117;46.680;11.154;2022-08-21T15:01:47;36.00;25.60
41290;DHT22;36117;46.680;11.154;2022-08-21T15:04:13;36.00;25.60
41290;DHT22;36117;46.680;11.154;2022-08-21T15:06:39;36.00;25.80
41290;DHT22;36117;46.680;11.154;2022-08-21T15:09:05;35.80;26.00
41290;DHT22;36117;46.680;11.154;2022-08-21T15:11:33;35.70;26.10
41290;DHT22;36117;46.680;11.154;2022-08-21T15:14:02;35.60;25.90
41290;DHT22;36117;46.680;11.154;2022-08-21T15:16:29;35.60;26.00
41290;DHT22;36117;46.680;11.154;2022-08-21T15:18:58;35.10;26.00
41290;DHT22;36117;46.680;11.154;2022-08-21T15:21:24;35.10;26.30
41290;DHT22;36117;46.680;11.154;2022-08-21T15:23:50;35.10;26.70
41290;DHT22;36117;46.680;11.154;2022-08-21T15:26:16;35.50;26.40
41290;DHT22;36117;46.680;11.154;2022-08-21T15:28:42;35.80;26.20
41290;DHT22;36117;46.680;11.154;2022-08-21T15:31:08;35.90;26.10
41290;DHT22;36117;46.680;11.154;2022-08-21T15:33:34;36.00;26.10
41290;DHT22;36117;46.680;11.154;2022-08-21T15:36:00;36.00;25.90
41290;DHT22;36117;46.680;11.154;2022-08-21T15:38:26;35.10;26.20
41290;DHT22;36117;46.680;11.154;2022-08-21T15:40:52;35.10;26.40
41290;DHT22;36117;46.680;11.154;2022-08-21T15:43:28;34.80;26.50
41290;DHT22;36117;46.680;11.154;2022-08-21T15:45:55;35.20;26.70
41290;DHT22;36117;46.680;11.154;2022-08-21T15:48:21;35.40;26.40
41290;DHT22;36117;46.680;11.154;2022-08-21T15:50:47;35.50;26.60
41290;DHT22;36117;46.680;11.154;2022-08-21T15:53:13;35.70;26.40
41290;DHT22;36117;46.680;11.154;2022-08-21T15:55:41;35.60;26.30
41290;DHT22;36117;46.680;11.154;2022-08-21T15:58:07;35.40;26.30
41290;DHT22;36117;46.680;11.154;2022-08-21T16:00:37;35.30;26.80
41290;DHT22;36117;46.680;11.154;2022-08-21T16:03:05;35.10;26.70
41290;DHT22;36117;46.680;11.154;2022-08-21T16:05:32;35.00;26.40
41290;DHT22;36117;46.680;11.154;2022-08-21T16:07:58;35.00;26.80
41290;DHT22;36117;46.680;11.154;2022-08-21T16:10:24;35.00;26.70
41290;DHT22;36117;46.680;11.154;2022-08-21T16:12:57;35.10;26.60
41290;DHT22;36117;46.680;11.154;2022-08-21T16:15:25;34.90;26.80
41290;DHT22;36117;46.680;11.154;2022-08-21T16:17:52;34.50;27.00
41290;DHT22;36117;46.680;11.154;2022-08-21T16:20:25;34.20;27.50
41290;DHT22;36117;46.680;11.154;2022-08-21T16:22:54;33.90;27.50
41290;DHT22;36117;46.680;11.154;2022-08-21T16:25:20;33.50;27.50
41290;DHT22;36117;46.680;11.154;2022-08-21T16:27:49;33.50;27.50
41290;DHT22;36117;46.680;11.154;2022-08-21T16:30:17;33.30;27.80
41290;DHT22;36117;46.680;11.154;2022-08-21T16:32:44;33.20;27.90
41290;DHT22;36117;46.680;11.154;2022-08-21T16:35:13;33.10;28.00
41290;DHT22;36117;46.680;11.154;2022-08-21T16:37:40;33.20;28.00